Aérodrome :
LOGIN :

S'inscrire | Disclaimer

   EN    FR    IT 

 










Légende :    VFR   VFR Marginal   IFR   IFR Intensif   IFR Très Intensif
Visi : 
Plafond : 
>= 8 km
>= 3000ft
5 à 8 km
1000 à 3000 ft
1500m à 5 km
500 à 1000 ft
800 à 1500m
200 à 500 ft
< 800m
< 200 ft
Symboles :   Orages  Brouillard  Fortes neiges  Fortes précipitations  Vent > 20 kt
SIGMETs :   Divers  Orages  Givrage  Turbulence  Onde Orograph.  Cendres Volcan.






- Altitude de l'aérodrome : 1768 ft


LEHC - Huesca Pirineos

DERNIER METAR :
  • 261000Z 09007KT 060V130 9999 OVC027 11/07 Q1017

METARs EXPIRÉS :
  • 260930Z 08007KT 9999 SCT030 BKN038 BKN048 11/07 Q1017
  • 260900Z 07008KT 9999 BKN027 BKN045 10/07 Q1017
  • 260830Z 08008KT 060V120 9999 SCT030 SCT036 BKN056 09/07 Q1017
  • 260800Z 08007KT 9999 SCT025 BKN039 BKN055 09/07 Q1016
  • 260730Z AUTO 09010KT 050V110 9000 -RA SCT030 BKN046 OVC050 09/07 Q1016

TAF TAF LEHC
Valide du 26 à 09h jusqu'au 27 à 09h UTC


260800Z 2609/2709 08012KT 9999 BKN030 TX14/2613Z TN08/2707Z
PROB30
TEMPO 2612/2616 4000 RA



MET'MAP, la Météo Aéronautique d'un coup d'oeil ! - Copyright ORBIFLY Décembre 2007 - Disclaimer

ORBIFLY MET'MAP TEAM :

Programmation & Développement : Alexandra Zaïnal
Sur une idée originale de : Baudouin d'Aumeries
Assistance à la programmation : Marc-Olivier Méhu
Soutien technique & logistique : Manuel Goepfert

Contact : metmap@orbifly.com




SOURCES & CREDITS :

   NOAA